Time;durP1;ratioP1;P1;durP2;ratioP2;P2;SDS_P1;SDS_P2;PMS_P1;PMS_P2;Temp;Humidity;BMP_temperature;BMP_pressure;BME280_temperature;BME280_humidity;BME280_pressure;Samples;Min_cycle;Max_cycle;Signal;HPM_P1;HPM_P2
2022/03/25 00:01:40;;;;;;;35.60;22.25;;;;;;;;;;4984257;28;20094;-81
2022/03/25 00:04:05;;;;;;;36.00;21.10;;;;;;;;;;4970105;28;20026;-81
2022/03/25 00:06:31;;;;;;;34.47;21.23;;;;;;;;;;4987102;28;20035;-82
2022/03/25 00:08:57;;;;;;;34.78;20.77;;;;;;;;;;4967334;28;20049;-81
2022/03/25 00:11:22;;;;;;;34.35;20.23;;;;;;;;;;4986635;28;20538;-83
2022/03/25 00:13:47;;;;;;;34.15;20.08;;;;;;;;;;4966802;28;20062;-83
2022/03/25 00:16:13;;;;;;;33.83;20.75;;;;;;;;;;4983348;28;20073;-79
2022/03/25 00:18:38;;;;;;;37.85;20.55;;;;;;;;;;4984979;28;20045;-82
2022/03/25 00:21:05;;;;;;;33.63;20.55;;;;;;;;;;4964756;28;20483;-83
2022/03/25 00:23:30;;;;;;;33.13;19.77;;;;;;;;;;4997932;28;20031;-82
2022/03/25 00:25:56;;;;;;;34.20;21.48;;;;;;;;;;4987920;28;20046;-83
2022/03/25 00:28:22;;;;;;;37.25;20.70;;;;;;;;;;4994856;28;20029;-81
2022/03/25 00:30:49;;;;;;;32.88;20.13;;;;;;;;;;4968947;28;20022;-80
2022/03/25 00:33:15;;;;;;;31.88;19.58;;;;;;;;;;4964856;28;20035;-83
2022/03/25 00:35:41;;;;;;;34.08;21.30;;;;;;;;;;4968214;28;20045;-83
2022/03/25 00:38:07;;;;;;;35.25;20.33;;;;;;;;;;4965982;28;20487;-80
2022/03/25 00:40:32;;;;;;;32.65;19.98;;;;;;;;;;4983499;28;20032;-80
2022/03/25 00:42:58;;;;;;;32.78;19.75;;;;;;;;;;4963885;28;20055;-79
2022/03/25 00:45:23;;;;;;;32.30;19.77;;;;;;;;;;4964929;28;20026;-79
2022/03/25 00:47:49;;;;;;;31.17;19.35;;;;;;;;;;4962902;28;20022;-79
2022/03/25 00:50:14;;;;;;;32.50;20.17;;;;;;;;;;4963802;28;20034;-80
2022/03/25 00:52:39;;;;;;;31.55;19.88;;;;;;;;;;4973516;28;20034;-81
2022/03/25 00:55:06;;;;;;;31.58;19.55;;;;;;;;;;4967776;28;20027;-83
2022/03/25 00:57:31;;;;;;;32.00;19.80;;;;;;;;;;4958797;28;20519;-80
2022/03/25 00:59:57;;;;;;;30.67;19.67;;;;;;;;;;4964358;28;20064;-82
2022/03/25 01:02:22;;;;;;;31.05;19.67;;;;;;;;;;4969055;28;20026;-78
2022/03/25 01:04:48;;;;;;;34.65;20.42;;;;;;;;;;4968114;28;20030;-84
2022/03/25 01:07:14;;;;;;;34.17;21.17;;;;;;;;;;4970199;28;20041;-78
2022/03/25 01:09:39;;;;;;;32.28;19.95;;;;;;;;;;4963093;28;20550;-79
2022/03/25 01:12:06;;;;;;;34.20;19.65;;;;;;;;;;4965642;28;20446;-81
2022/03/25 01:14:32;;;;;;;34.17;20.00;;;;;;;;;;4965369;28;20080;-80
2022/03/25 01:16:57;;;;;;;32.70;20.60;;;;;;;;;;4965797;28;20027;-78
2022/03/25 01:19:22;;;;;;;34.00;20.67;;;;;;;;;;4965679;28;20657;-83
2022/03/25 01:21:48;;;;;;;30.55;19.10;;;;;;;;;;4966219;28;20038;-84
2022/03/25 01:24:14;;;;;;;33.30;18.90;;;;;;;;;;5002519;28;20393;-84
2022/03/25 01:26:40;;;;;;;31.10;19.70;;;;;;;;;;4967156;28;20023;-79
2022/03/25 01:29:06;;;;;;;29.92;18.45;;;;;;;;;;4966808;28;20057;-83
2022/03/25 01:31:32;;;;;;;31.17;18.65;;;;;;;;;;4965803;28;20031;-78
2022/03/25 01:33:58;;;;;;;32.28;18.50;;;;;;;;;;4965763;28;20041;-84
2022/03/25 01:36:23;;;;;;;33.53;19.27;;;;;;;;;;4963549;28;20472;-82
2022/03/25 01:38:49;;;;;;;32.05;18.92;;;;;;;;;;4975575;28;20027;-80
2022/03/25 01:41:18;;;;;;;30.38;18.77;;;;;;;;;;4964244;28;20042;-80
2022/03/25 01:43:52;;;;;;;32.40;17.85;;;;;;;;;;4963761;28;20050;-82
2022/03/25 01:46:17;;;;;;;35.78;19.00;;;;;;;;;;4960739;28;20037;-80
2022/03/25 01:48:43;;;;;;;30.73;19.35;;;;;;;;;;4961589;28;20443;-78
2022/03/25 01:51:08;;;;;;;31.48;18.60;;;;;;;;;;4960304;28;20427;-80
2022/03/25 01:53:33;;;;;;;29.50;19.13;;;;;;;;;;4965501;28;20035;-77
2022/03/25 01:56:01;;;;;;;31.33;18.58;;;;;;;;;;4961731;28;20539;-82
2022/03/25 01:58:28;;;;;;;28.83;18.08;;;;;;;;;;4961492;28;20545;-82
2022/03/25 02:00:54;;;;;;;30.55;19.20;;;;;;;;;;4960870;28;20034;-82
2022/03/25 02:03:19;;;;;;;31.48;19.45;;;;;;;;;;4960139;28;20697;-82
2022/03/25 02:05:47;;;;;;;32.22;19.27;;;;;;;;;;4962291;28;20097;-83
2022/03/25 02:08:12;;;;;;;30.73;18.92;;;;;;;;;;4962245;28;20043;-83
2022/03/25 02:10:39;;;;;;;31.92;18.65;;;;;;;;;;4962522;28;20031;-81
2022/03/25 02:13:05;;;;;;;30.30;18.92;;;;;;;;;;4964141;28;20031;-81
2022/03/25 02:15:51;;;;;;;34.08;19.70;;;;;;;;;;4961286;28;20058;-77
2022/03/25 02:18:23;;;;;;;34.15;19.27;;;;;;;;;;4963763;28;20034;-81
2022/03/25 02:20:49;;;;;;;32.60;19.38;;;;;;;;;;4964092;28;20103;-77
2022/03/25 02:23:15;;;;;;;29.92;19.00;;;;;;;;;;4963750;28;20034;-82
2022/03/25 02:25:41;;;;;;;32.38;19.08;;;;;;;;;;4960001;28;20506;-81
2022/03/25 02:28:07;;;;;;;32.65;18.90;;;;;;;;;;4962533;28;20034;-80
2022/03/25 02:30:34;;;;;;;30.75;19.27;;;;;;;;;;4963435;28;20031;-80
2022/03/25 02:33:02;;;;;;;32.58;19.60;;;;;;;;;;4965981;28;20061;-80
2022/03/25 02:35:45;;;;;;;29.20;18.88;;;;;;;;;;4962380;28;20393;-78
2022/03/25 02:38:13;;;;;;;31.10;18.50;;;;;;;;;;4960992;28;20057;-81
2022/03/25 02:40:39;;;;;;;32.15;19.98;;;;;;;;;;4993644;28;20702;-77
2022/03/25 02:43:05;;;;;;;32.63;20.13;;;;;;;;;;4958875;28;20460;-79
2022/03/25 02:45:31;;;;;;;28.85;19.65;;;;;;;;;;4961343;28;20023;-83
2022/03/25 02:47:56;;;;;;;29.88;18.67;;;;;;;;;;4959024;28;20030;-80
2022/03/25 02:50:22;;;;;;;35.08;20.33;;;;;;;;;;4960482;28;20073;-77
2022/03/25 02:52:47;;;;;;;33.30;20.20;;;;;;;;;;4995570;28;20034;-82
2022/03/25 02:55:13;;;;;;;31.13;19.45;;;;;;;;;;4993035;28;20399;-83
2022/03/25 02:57:38;;;;;;;31.35;19.38;;;;;;;;;;4978710;28;20085;-84
2022/03/25 03:00:09;;;;;;;30.77;19.45;;;;;;;;;;4969025;28;20491;-80
2022/03/25 03:02:38;;;;;;;32.65;19.13;;;;;;;;;;4965708;28;20054;-83
2022/03/25 03:05:06;;;;;;;33.58;19.52;;;;;;;;;;4968367;28;20023;-79
2022/03/25 03:07:32;;;;;;;34.55;19.73;;;;;;;;;;4968055;28;20034;-82
2022/03/25 03:09:58;;;;;;;33.80;19.75;;;;;;;;;;4998624;28;20034;-82
2022/03/25 03:12:24;;;;;;;35.55;19.83;;;;;;;;;;4998899;28;21344;-82
2022/03/25 03:14:50;;;;;;;30.77;19.55;;;;;;;;;;4971305;28;20029;-78
2022/03/25 03:17:15;;;;;;;33.20;20.15;;;;;;;;;;4968194;28;20118;-83
2022/03/25 03:19:40;;;;;;;33.10;20.27;;;;;;;;;;4970900;28;20395;-80
2022/03/25 03:22:06;;;;;;;32.30;19.73;;;;;;;;;;4966220;28;20030;-80
2022/03/25 03:24:31;;;;;;;36.88;19.98;;;;;;;;;;4980508;28;20106;-83
2022/03/25 03:26:58;;;;;;;36.38;19.70;;;;;;;;;;4968994;28;20066;-82
2022/03/25 03:29:24;;;;;;;33.55;19.38;;;;;;;;;;4971550;28;20031;-82
2022/03/25 03:31:49;;;;;;;33.85;20.67;;;;;;;;;;5000700;28;20097;-83
2022/03/25 03:34:15;;;;;;;35.08;20.05;;;;;;;;;;4965772;28;20031;-82
2022/03/25 03:36:40;;;;;;;33.40;19.45;;;;;;;;;;4964339;28;20039;-82
2022/03/25 03:39:05;;;;;;;33.45;19.23;;;;;;;;;;4965629;28;20078;-82
2022/03/25 03:41:31;;;;;;;41.38;20.02;;;;;;;;;;4969920;28;20161;-80
2022/03/25 03:43:56;;;;;;;35.03;20.05;;;;;;;;;;4985065;28;20056;-78
2022/03/25 03:46:22;;;;;;;34.85;20.02;;;;;;;;;;4970266;28;20030;-82
2022/03/25 03:48:48;;;;;;;36.55;20.70;;;;;;;;;;4987675;28;20082;-77
2022/03/25 03:51:14;;;;;;;33.25;20.98;;;;;;;;;;4987024;28;20121;-80
2022/03/25 03:53:39;;;;;;;34.70;20.67;;;;;;;;;;4982291;28;20372;-82
2022/03/25 03:56:04;;;;;;;39.83;21.85;;;;;;;;;;4987514;28;20038;-83
2022/03/25 03:58:30;;;;;;;33.92;20.27;;;;;;;;;;4969680;28;20041;-79
2022/03/25 04:00:55;;;;;;;36.83;21.23;;;;;;;;;;4969955;28;20084;-80
2022/03/25 04:03:20;;;;;;;36.28;21.55;;;;;;;;;;4963605;28;20065;-83
2022/03/25 04:05:46;;;;;;;37.90;23.23;;;;;;;;;;4977907;28;20060;-78
2022/03/25 04:08:11;;;;;;;37.60;21.45;;;;;;;;;;4981635;28;20102;-81
2022/03/25 04:10:37;;;;;;;37.97;21.85;;;;;;;;;;4981738;28;20030;-83
2022/03/25 04:13:02;;;;;;;40.25;22.50;;;;;;;;;;4964220;28;20027;-78
2022/03/25 04:15:27;;;;;;;37.03;21.90;;;;;;;;;;4981270;28;20057;-84
2022/03/25 04:17:53;;;;;;;39.22;22.92;;;;;;;;;;4980954;28;20034;-77
2022/03/25 04:20:18;;;;;;;38.88;22.63;;;;;;;;;;4964800;28;20474;-83
2022/03/25 04:22:45;;;;;;;37.88;22.30;;;;;;;;;;4980274;28;20040;-83
2022/03/25 04:25:11;;;;;;;40.35;24.17;;;;;;;;;;4978110;28;20022;-82
2022/03/25 04:27:54;;;;;;;39.20;22.27;;;;;;;;;;4995175;28;20034;-83
2022/03/25 04:30:22;;;;;;;41.92;22.52;;;;;;;;;;4985626;28;20340;-83
2022/03/25 04:32:47;;;;;;;36.90;21.27;;;;;;;;;;4968032;28;20320;-80
2022/03/25 04:35:13;;;;;;;39.42;22.85;;;;;;;;;;4982936;28;20034;-82
2022/03/25 04:37:38;;;;;;;40.28;23.02;;;;;;;;;;4968816;28;20026;-82
2022/03/25 04:40:04;;;;;;;39.53;23.80;;;;;;;;;;4983640;28;20519;-80
2022/03/25 04:42:29;;;;;;;39.63;22.75;;;;;;;;;;4980727;28;20407;-80
2022/03/25 04:44:55;;;;;;;40.95;23.83;;;;;;;;;;4980266;28;20026;-78
2022/03/25 04:47:21;;;;;;;39.30;22.23;;;;;;;;;;4965027;28;20074;-80
2022/03/25 04:49:46;;;;;;;43.28;22.90;;;;;;;;;;4968474;28;20544;-81
2022/03/25 04:52:13;;;;;;;41.75;24.08;;;;;;;;;;4987671;28;20054;-83
2022/03/25 04:54:39;;;;;;;40.00;23.75;;;;;;;;;;4964427;28;20118;-78
2022/03/25 04:57:04;;;;;;;41.78;23.70;;;;;;;;;;4979019;28;20981;-83
2022/03/25 04:59:30;;;;;;;40.47;22.45;;;;;;;;;;4966100;28;20022;-80
2022/03/25 05:01:55;;;;;;;38.40;24.30;;;;;;;;;;4998338;28;20467;-80
2022/03/25 05:04:20;;;;;;;40.70;23.38;;;;;;;;;;4986303;28;20081;-83
2022/03/25 05:06:46;;;;;;;40.47;24.20;;;;;;;;;;4972605;28;20030;-83
2022/03/25 05:09:11;;;;;;;41.28;25.15;;;;;;;;;;4985175;28;20034;-83
2022/03/25 05:11:37;;;;;;;41.17;24.50;;;;;;;;;;4990384;28;20125;-83
2022/03/25 05:14:03;;;;;;;44.65;25.13;;;;;;;;;;4967070;28;20042;-78
2022/03/25 05:16:28;;;;;;;43.08;25.15;;;;;;;;;;4983493;28;20053;-83
2022/03/25 05:18:54;;;;;;;41.22;23.17;;;;;;;;;;4965364;28;20038;-83
2022/03/25 05:21:20;;;;;;;41.40;25.17;;;;;;;;;;4969746;28;20030;-80
2022/03/25 05:23:45;;;;;;;44.35;26.02;;;;;;;;;;4988399;28;20034;-84
2022/03/25 05:26:11;;;;;;;45.80;25.15;;;;;;;;;;4967697;28;20022;-82
2022/03/25 05:28:36;;;;;;;46.42;25.00;;;;;;;;;;4966008;28;20045;-83
2022/03/25 05:31:02;;;;;;;42.53;23.88;;;;;;;;;;4966864;28;20034;-82
2022/03/25 05:33:28;;;;;;;45.95;24.58;;;;;;;;;;4965726;28;20042;-82
2022/03/25 05:35:53;;;;;;;41.53;25.02;;;;;;;;;;4982686;28;20030;-79
2022/03/25 05:38:19;;;;;;;47.33;25.90;;;;;;;;;;4961220;28;20027;-83
2022/03/25 05:40:44;;;;;;;44.72;25.08;;;;;;;;;;4967331;28;20031;-80
2022/03/25 05:43:09;;;;;;;44.20;25.17;;;;;;;;;;4995272;28;20101;-83
2022/03/25 05:45:35;;;;;;;46.90;26.20;;;;;;;;;;4964146;28;20034;-78
2022/03/25 05:48:00;;;;;;;47.22;25.40;;;;;;;;;;4969427;28;20453;-80
2022/03/25 05:50:26;;;;;;;47.35;27.25;;;;;;;;;;4964062;28;20030;-84
2022/03/25 05:52:51;;;;;;;48.08;26.25;;;;;;;;;;4961492;28;20046;-78
2022/03/25 05:55:17;;;;;;;47.42;25.80;;;;;;;;;;4965290;28;20026;-83
2022/03/25 05:57:42;;;;;;;44.45;26.08;;;;;;;;;;4962360;28;20029;-81
2022/03/25 06:00:11;;;;;;;43.53;26.13;;;;;;;;;;4965652;28;20041;-82
2022/03/25 06:02:37;;;;;;;45.38;27.30;;;;;;;;;;4961869;28;20066;-78
2022/03/25 06:05:03;;;;;;;50.33;27.70;;;;;;;;;;4966155;28;20101;-80
2022/03/25 06:07:35;;;;;;;47.90;27.00;;;;;;;;;;4997364;28;20019;-83
2022/03/25 06:10:00;;;;;;;49.47;27.98;;;;;;;;;;4961660;28;20027;-77
2022/03/25 06:12:26;;;;;;;49.63;28.77;;;;;;;;;;4959931;28;20487;-81
2022/03/25 06:14:51;;;;;;;45.95;28.38;;;;;;;;;;4964414;28;20336;-83
2022/03/25 06:17:16;;;;;;;46.53;28.38;;;;;;;;;;4966695;28;20023;-81
2022/03/25 06:19:41;;;;;;;55.15;28.75;;;;;;;;;;4965187;28;20490;-83
2022/03/25 06:22:07;;;;;;;54.40;29.50;;;;;;;;;;4963470;28;20045;-80
2022/03/25 06:24:32;;;;;;;55.20;30.40;;;;;;;;;;4964760;28;20399;-79
2022/03/25 06:26:57;;;;;;;51.80;30.90;;;;;;;;;;4968830;28;20042;-83
2022/03/25 06:29:23;;;;;;;53.90;31.15;;;;;;;;;;4967128;28;20041;-78
2022/03/25 06:31:48;;;;;;;54.35;29.95;;;;;;;;;;4960734;28;20034;-82
2022/03/25 06:34:20;;;;;;;55.85;30.52;;;;;;;;;;4980355;28;20031;-83
2022/03/25 06:36:48;;;;;;;55.63;31.35;;;;;;;;;;4964430;28;20510;-77
2022/03/25 06:39:14;;;;;;;57.90;31.63;;;;;;;;;;4960397;28;20030;-80
2022/03/25 06:41:39;;;;;;;57.55;32.35;;;;;;;;;;4964724;28;20082;-80
2022/03/25 06:44:05;;;;;;;57.80;32.53;;;;;;;;;;4972159;28;20045;-83
2022/03/25 06:46:31;;;;;;;53.65;32.67;;;;;;;;;;4982174;28;20408;-80
2022/03/25 06:48:57;;;;;;;57.05;32.22;;;;;;;;;;4963920;28;20034;-82
2022/03/25 06:51:22;;;;;;;56.65;30.60;;;;;;;;;;4965866;28;20031;-80
2022/03/25 06:53:48;;;;;;;56.30;32.55;;;;;;;;;;4965443;28;20061;-80
2022/03/25 06:56:14;;;;;;;59.97;33.80;;;;;;;;;;4983047;28;20497;-83
2022/03/25 06:58:40;;;;;;;58.25;32.33;;;;;;;;;;4988752;28;20026;-80
2022/03/25 07:01:05;;;;;;;60.60;32.47;;;;;;;;;;4984011;28;20091;-80
2022/03/25 07:03:32;;;;;;;56.22;33.25;;;;;;;;;;4983440;28;20027;-80
2022/03/25 07:06:00;;;;;;;59.90;34.08;;;;;;;;;;4970840;28;20039;-79
2022/03/25 07:08:29;;;;;;;57.88;32.97;;;;;;;;;;4967485;28;20018;-80
2022/03/25 07:10:55;;;;;;;66.05;33.92;;;;;;;;;;4984070;28;20112;-82
2022/03/25 07:13:21;;;;;;;63.22;34.75;;;;;;;;;;4987691;28;20045;-80
2022/03/25 07:15:46;;;;;;;62.72;33.83;;;;;;;;;;4972708;28;20398;-81
2022/03/25 07:18:12;;;;;;;61.78;34.70;;;;;;;;;;4969065;28;20057;-81
2022/03/25 07:20:37;;;;;;;65.03;34.78;;;;;;;;;;4971360;28;20030;-84
2022/03/25 07:23:02;;;;;;;58.97;34.72;;;;;;;;;;4990405;28;20037;-79
2022/03/25 07:25:29;;;;;;;60.20;33.65;;;;;;;;;;5004232;28;20406;-80
2022/03/25 07:27:54;;;;;;;62.20;33.25;;;;;;;;;;4989665;28;20040;-79
2022/03/25 07:30:20;;;;;;;59.28;34.28;;;;;;;;;;4988668;28;20469;-78
2022/03/25 07:32:45;;;;;;;59.58;34.63;;;;;;;;;;4982108;28;20042;-80
2022/03/25 07:35:12;;;;;;;65.40;35.65;;;;;;;;;;4963995;28;20392;-83
2022/03/25 07:37:39;;;;;;;63.28;34.60;;;;;;;;;;4978251;28;20035;-79
2022/03/25 07:40:09;;;;;;;61.97;35.22;;;;;;;;;;4992890;28;20039;-80
2022/03/25 07:42:35;;;;;;;61.40;34.55;;;;;;;;;;4977167;28;20085;-83
2022/03/25 07:45:01;;;;;;;59.92;35.65;;;;;;;;;;4958030;28;20069;-84
2022/03/25 07:47:32;;;;;;;65.00;36.88;;;;;;;;;;4993090;28;20061;-81
2022/03/25 07:49:57;;;;;;;62.55;36.38;;;;;;;;;;4998978;28;20022;-86
2022/03/25 07:52:22;;;;;;;61.72;35.58;;;;;;;;;;4984933;28;20441;-86
2022/03/25 07:54:49;;;;;;;67.05;36.08;;;;;;;;;;4976473;28;20033;-86
2022/03/25 07:57:14;;;;;;;62.63;36.08;;;;;;;;;;4969288;28;20027;-79
2022/03/25 07:59:40;;;;;;;64.28;36.45;;;;;;;;;;4978845;28;20037;-80
2022/03/25 08:02:05;;;;;;;67.57;37.53;;;;;;;;;;4974516;28;20025;-83
2022/03/25 08:04:31;;;;;;;66.75;35.58;;;;;;;;;;4996139;28;20010;-80
2022/03/25 08:06:56;;;;;;;67.35;38.22;;;;;;;;;;4979412;28;20029;-85
2022/03/25 08:09:21;;;;;;;66.10;38.05;;;;;;;;;;4978350;28;20018;-84
2022/03/25 08:11:47;;;;;;;64.78;36.08;;;;;;;;;;4977901;28;20038;-80
2022/03/25 08:14:16;;;;;;;63.40;38.13;;;;;;;;;;4981483;28;20026;-80
2022/03/25 08:16:44;;;;;;;65.20;37.53;;;;;;;;;;4980203;28;20121;-83
2022/03/25 08:19:10;;;;;;;63.08;35.58;;;;;;;;;;4996459;28;20477;-86
2022/03/25 08:21:36;;;;;;;62.75;35.88;;;;;;;;;;4983612;28;20521;-81
2022/03/25 08:29:29;;;;;;;61.42;36.20;;;;;;;;;;4999281;28;20100;-86
2022/03/25 08:31:54;;;;;;;63.25;36.67;;;;;;;;;;4977989;28;20065;-83
2022/03/25 08:34:21;;;;;;;58.15;35.40;;;;;;;;;;4982100;28;20447;-86
2022/03/25 08:36:48;;;;;;;60.38;34.72;;;;;;;;;;4979953;28;20117;-79
2022/03/25 08:39:14;;;;;;;62.92;36.83;;;;;;;;;;4977169;28;20026;-80
2022/03/25 08:41:41;;;;;;;63.17;36.10;;;;;;;;;;4991381;28;20125;-82
2022/03/25 08:44:06;;;;;;;57.80;34.30;;;;;;;;;;4995946;28;20026;-80
2022/03/25 08:46:34;;;;;;;61.35;34.75;;;;;;;;;;4981172;28;20084;-85
2022/03/25 08:48:59;;;;;;;63.13;36.72;;;;;;;;;;4973187;28;20061;-83
2022/03/25 08:51:24;;;;;;;63.50;35.95;;;;;;;;;;4981063;28;20022;-81
2022/03/25 08:53:50;;;;;;;62.53;34.78;;;;;;;;;;4977770;28;20114;-79
2022/03/25 08:56:16;;;;;;;59.65;35.15;;;;;;;;;;4975665;28;20117;-84
2022/03/25 08:58:41;;;;;;;58.00;34.40;;;;;;;;;;4974534;28;20076;-86
2022/03/25 09:01:07;;;;;;;59.10;33.28;;;;;;;;;;4976363;28;20490;-80
2022/03/25 09:03:32;;;;;;;55.95;33.83;;;;;;;;;;4975873;28;20026;-84
2022/03/25 09:05:58;;;;;;;57.50;33.20;;;;;;;;;;4976641;28;20100;-84
2022/03/25 09:08:23;;;;;;;55.00;32.60;;;;;;;;;;4979969;28;20022;-85
2022/03/25 09:10:48;;;;;;;53.97;31.08;;;;;;;;;;4978047;28;20030;-81
2022/03/25 09:13:14;;;;;;;58.65;33.92;;;;;;;;;;4981307;28;20113;-80
2022/03/25 09:15:40;;;;;;;59.10;32.45;;;;;;;;;;4995864;28;20022;-80
2022/03/25 09:18:06;;;;;;;52.15;31.30;;;;;;;;;;4976147;28;20030;-80
2022/03/25 09:20:32;;;;;;;53.78;32.00;;;;;;;;;;4979464;28;20063;-80
2022/03/25 09:22:57;;;;;;;54.35;31.48;;;;;;;;;;4976925;28;20026;-85
2022/03/25 09:25:23;;;;;;;53.40;32.65;;;;;;;;;;4982434;28;20601;-85
2022/03/25 09:27:49;;;;;;;54.33;32.05;;;;;;;;;;4993804;28;20042;-81
2022/03/25 09:30:15;;;;;;;51.88;31.65;;;;;;;;;;4979889;28;20026;-80
2022/03/25 09:32:40;;;;;;;56.78;31.40;;;;;;;;;;4977418;28;20530;-80
2022/03/25 09:35:08;;;;;;;57.65;31.90;;;;;;;;;;4994155;28;20030;-79
2022/03/25 09:37:39;;;;;;;52.20;31.60;;;;;;;;;;4974250;28;20029;-80
2022/03/25 09:40:08;;;;;;;53.03;32.47;;;;;;;;;;4975614;28;20041;-85
2022/03/25 09:42:34;;;;;;;52.13;31.52;;;;;;;;;;4971063;28;20100;-80
2022/03/25 09:45:01;;;;;;;57.03;33.33;;;;;;;;;;4988054;28;20034;-79
2022/03/25 09:47:27;;;;;;;55.58;33.08;;;;;;;;;;4993927;28;20022;-80
2022/03/25 09:49:52;;;;;;;55.08;33.60;;;;;;;;;;4976082;28;20026;-80
2022/03/25 09:52:18;;;;;;;48.03;30.63;;;;;;;;;;4975356;28;20026;-85
2022/03/25 09:54:44;;;;;;;53.20;31.65;;;;;;;;;;4979079;28;20501;-79
2022/03/25 09:57:09;;;;;;;52.63;30.77;;;;;;;;;;4974218;28;20018;-79
2022/03/25 09:59:34;;;;;;;55.83;33.13;;;;;;;;;;4976542;28;20027;-79
2022/03/25 10:02:00;;;;;;;50.72;30.15;;;;;;;;;;4996176;28;20479;-86
2022/03/25 10:04:37;;;;;;;51.50;30.00;;;;;;;;;;5001323;28;20026;-80
2022/03/25 10:07:27;;;;;;;52.58;31.23;;;;;;;;;;4979556;28;20041;-86
2022/03/25 10:10:09;;;;;;;52.30;31.65;;;;;;;;;;4992166;28;20100;-85
2022/03/25 10:12:37;;;;;;;50.20;31.27;;;;;;;;;;4998330;28;20022;-79
2022/03/25 10:15:22;;;;;;;46.42;28.75;;;;;;;;;;4979860;28;20117;-79
2022/03/25 10:17:58;;;;;;;48.67;29.38;;;;;;;;;;4981044;28;20034;-79
2022/03/25 10:20:32;;;;;;;47.60;28.17;;;;;;;;;;4990332;28;20157;-85
2022/03/25 10:23:11;;;;;;;44.47;28.40;;;;;;;;;;4976061;28;20022;-85
2022/03/25 10:25:47;;;;;;;46.38;27.48;;;;;;;;;;4972174;28;20030;-85
2022/03/25 10:28:42;;;;;;;45.65;28.15;;;;;;;;;;4991442;28;20029;-85
2022/03/25 10:31:14;;;;;;;46.47;27.88;;;;;;;;;;4988978;28;20434;-80
2022/03/25 10:33:46;;;;;;;44.22;26.90;;;;;;;;;;4976869;28;20018;-80
2022/03/25 10:36:14;;;;;;;45.97;26.88;;;;;;;;;;4996929;28;20164;-84
2022/03/25 10:39:01;;;;;;;47.45;27.70;;;;;;;;;;4996158;28;20173;-79
2022/03/25 10:41:40;;;;;;;43.53;26.88;;;;;;;;;;4976095;28;20053;-81
2022/03/25 10:44:08;;;;;;;41.70;26.67;;;;;;;;;;4976609;28;20451;-80
2022/03/25 10:46:49;;;;;;;45.88;26.92;;;;;;;;;;4980018;28;20407;-85
2022/03/25 10:49:17;;;;;;;43.78;28.10;;;;;;;;;;4996205;28;20430;-80
2022/03/25 10:51:56;;;;;;;43.78;26.25;;;;;;;;;;4975048;28;20117;-85
2022/03/25 10:54:26;;;;;;;42.20;26.90;;;;;;;;;;4992662;28;20040;-84
2022/03/25 10:56:57;;;;;;;39.05;25.55;;;;;;;;;;4975445;28;20486;-85
2022/03/25 10:59:24;;;;;;;45.47;26.88;;;;;;;;;;4981733;28;20422;-80
2022/03/25 11:01:51;;;;;;;45.80;27.75;;;;;;;;;;4975931;28;20068;-80
2022/03/25 11:04:17;;;;;;;46.85;27.17;;;;;;;;;;4971669;28;20066;-84
2022/03/25 11:06:45;;;;;;;44.80;27.48;;;;;;;;;;4974932;28;20034;-85
2022/03/25 11:09:12;;;;;;;44.72;26.73;;;;;;;;;;4990905;28;20026;-80
2022/03/25 11:11:37;;;;;;;43.90;26.40;;;;;;;;;;4976260;28;20022;-85
2022/03/25 11:14:04;;;;;;;42.42;25.88;;;;;;;;;;4978798;28;20100;-80
2022/03/25 11:16:31;;;;;;;45.08;25.40;;;;;;;;;;4992018;28;20033;-85
2022/03/25 11:18:57;;;;;;;46.08;27.77;;;;;;;;;;4977292;28;20044;-80
2022/03/25 11:21:24;;;;;;;42.28;27.13;;;;;;;;;;4977442;28;20274;-85
2022/03/25 11:23:52;;;;;;;40.05;24.25;;;;;;;;;;4991211;28;20488;-85
2022/03/25 11:26:22;;;;;;;44.03;26.45;;;;;;;;;;4994961;28;20386;-85
2022/03/25 11:28:52;;;;;;;40.42;26.95;;;;;;;;;;4990267;28;20022;-80
2022/03/25 11:31:17;;;;;;;43.17;25.80;;;;;;;;;;4976046;28;20121;-80
2022/03/25 11:34:11;;;;;;;41.95;26.90;;;;;;;;;;4978753;28;20105;-81
2022/03/25 11:36:41;;;;;;;41.72;25.40;;;;;;;;;;4994044;28;20436;-80
2022/03/25 11:39:24;;;;;;;43.33;24.40;;;;;;;;;;4997064;28;20414;-80
2022/03/25 11:42:00;;;;;;;41.47;23.45;;;;;;;;;;4977841;28;20150;-85
2022/03/25 11:44:25;;;;;;;40.03;23.83;;;;;;;;;;4980939;28;20087;-80
2022/03/25 11:47:00;;;;;;;41.30;25.13;;;;;;;;;;5001495;28;20021;-81
2022/03/25 11:49:26;;;;;;;38.25;24.38;;;;;;;;;;4982461;28;20074;-85
2022/03/25 11:51:52;;;;;;;41.58;24.10;;;;;;;;;;4996236;28;20042;-85
2022/03/25 11:54:40;;;;;;;36.53;21.58;;;;;;;;;;4977212;28;20029;-85
2022/03/25 11:57:07;;;;;;;35.60;22.75;;;;;;;;;;4995833;28;20033;-85
2022/03/25 11:59:59;;;;;;;37.35;22.50;;;;;;;;;;4980705;28;20076;-80
2022/03/25 12:02:29;;;;;;;36.40;23.30;;;;;;;;;;4998209;28;20019;-80
2022/03/25 12:04:56;;;;;;;38.00;23.55;;;;;;;;;;4995431;28;20010;-80
2022/03/25 12:07:21;;;;;;;41.78;24.73;;;;;;;;;;4997915;28;20030;-81
2022/03/25 12:09:47;;;;;;;35.28;21.20;;;;;;;;;;4980466;28;20109;-80
2022/03/25 12:12:13;;;;;;;36.42;21.60;;;;;;;;;;4993777;28;20026;-80
2022/03/25 12:15:09;;;;;;;39.63;22.45;;;;;;;;;;4994790;28;20023;-80
2022/03/25 12:17:34;;;;;;;35.42;21.48;;;;;;;;;;4993798;28;20065;-84
2022/03/25 12:20:01;;;;;;;36.10;21.20;;;;;;;;;;4999154;28;20033;-80
2022/03/25 12:22:29;;;;;;;37.65;21.67;;;;;;;;;;4980554;28;20048;-81
2022/03/25 12:25:04;;;;;;;39.60;21.85;;;;;;;;;;4974504;28;20117;-81
2022/03/25 12:27:29;;;;;;;41.00;23.05;;;;;;;;;;4977754;28;20023;-80
2022/03/25 12:29:55;;;;;;;37.75;21.83;;;;;;;;;;4998359;28;20387;-80
2022/03/25 12:32:23;;;;;;;36.97;22.83;;;;;;;;;;4979768;28;20406;-84
2022/03/25 12:34:59;;;;;;;40.63;24.02;;;;;;;;;;4980341;28;20039;-80
2022/03/25 12:37:55;;;;;;;38.33;21.95;;;;;;;;;;4997186;28;20022;-80
2022/03/25 12:40:27;;;;;;;41.05;22.90;;;;;;;;;;4977092;28;20045;-85
2022/03/25 12:42:58;;;;;;;39.20;22.38;;;;;;;;;;4977499;28;20053;-80
2022/03/25 12:45:35;;;;;;;38.80;22.77;;;;;;;;;;5000508;28;20518;-80
2022/03/25 12:48:12;;;;;;;38.08;23.73;;;;;;;;;;4973874;28;20093;-84
2022/03/25 12:50:42;;;;;;;38.40;23.92;;;;;;;;;;4994978;28;20036;-86
2022/03/25 12:53:07;;;;;;;44.08;23.40;;;;;;;;;;4981363;28;20014;-80
2022/03/25 12:55:32;;;;;;;39.58;23.50;;;;;;;;;;4976888;28;20076;-85
2022/03/25 12:58:06;;;;;;;38.60;21.55;;;;;;;;;;4997393;28;20029;-80
2022/03/25 13:00:34;;;;;;;38.47;22.55;;;;;;;;;;4977540;28;20497;-84
2022/03/25 13:03:00;;;;;;;37.17;22.02;;;;;;;;;;4999852;28;20094;-80
2022/03/25 13:05:25;;;;;;;44.47;24.27;;;;;;;;;;4994818;28;20068;-80
2022/03/25 13:07:58;;;;;;;44.10;24.85;;;;;;;;;;4988043;28;20035;-79
2022/03/25 13:10:24;;;;;;;42.90;25.70;;;;;;;;;;4976686;28;20034;-80
2022/03/25 13:12:53;;;;;;;41.92;23.75;;;;;;;;;;4977223;28;20026;-84
2022/03/25 13:15:29;;;;;;;38.38;23.98;;;;;;;;;;5011515;28;20504;-85
2022/03/25 13:18:00;;;;;;;42.38;23.70;;;;;;;;;;4977070;28;20034;-85
2022/03/25 13:20:31;;;;;;;39.20;23.10;;;;;;;;;;4976934;28;20126;-84
2022/03/25 13:23:10;;;;;;;40.90;23.65;;;;;;;;;;4983078;28;20549;-79
2022/03/25 13:25:40;;;;;;;41.85;23.85;;;;;;;;;;4976582;28;20036;-79
2022/03/25 13:28:23;;;;;;;37.35;23.23;;;;;;;;;;4997308;28;20058;-85
2022/03/25 13:30:49;;;;;;;45.67;24.42;;;;;;;;;;4978119;28;20526;-86
2022/03/25 13:33:22;;;;;;;42.40;24.05;;;;;;;;;;4969287;28;20033;-88
2022/03/25 13:35:54;;;;;;;42.38;23.27;;;;;;;;;;4980080;28;20433;-84
2022/03/25 13:38:41;;;;;;;39.90;23.17;;;;;;;;;;4996516;28;20046;-79
2022/03/25 13:41:18;;;;;;;40.97;22.20;;;;;;;;;;4973172;28;20046;-84
2022/03/25 13:43:46;;;;;;;34.45;21.42;;;;;;;;;;4994071;28;20050;-79
2022/03/25 13:46:27;;;;;;;37.42;21.50;;;;;;;;;;4979730;28;20030;-84
2022/03/25 13:48:58;;;;;;;37.33;21.85;;;;;;;;;;4992309;28;20077;-87
2022/03/25 13:51:37;;;;;;;39.67;22.92;;;;;;;;;;4979196;28;20030;-86
2022/03/25 13:54:08;;;;;;;35.80;22.20;;;;;;;;;;4976428;28;20824;-79
2022/03/25 13:56:44;;;;;;;38.03;22.13;;;;;;;;;;4996881;28;20494;-79
2022/03/25 13:59:35;;;;;;;34.38;21.95;;;;;;;;;;4994068;28;20541;-84
2022/03/25 14:02:02;;;;;;;33.08;20.13;;;;;;;;;;5008156;28;20474;-84
2022/03/25 14:04:30;;;;;;;31.58;18.77;;;;;;;;;;4992192;28;20050;-79
2022/03/25 14:06:57;;;;;;;31.77;18.40;;;;;;;;;;4979590;28;20376;-79
2022/03/25 14:09:41;;;;;;;32.97;19.98;;;;;;;;;;4976558;28;20033;-79
2022/03/25 14:12:22;;;;;;;31.67;19.05;;;;;;;;;;4980504;28;20080;-79
2022/03/25 14:14:50;;;;;;;34.75;19.35;;;;;;;;;;4979938;28;20360;-79
2022/03/25 14:17:15;;;;;;;34.00;19.27;;;;;;;;;;4976541;28;20031;-86
2022/03/25 14:19:41;;;;;;;32.67;19.60;;;;;;;;;;4979658;28;20037;-80
2022/03/25 14:22:09;;;;;;;37.65;19.60;;;;;;;;;;4990341;28;20743;-80
2022/03/25 14:24:39;;;;;;;31.67;18.95;;;;;;;;;;4992080;28;20076;-81
2022/03/25 14:27:08;;;;;;;35.58;19.45;;;;;;;;;;4993598;28;20030;-80